createdAt,value
2024-03-13T00:00:42.585Z,5.08
2024-03-13T00:03:11.234Z,5.04
2024-03-13T00:05:39.780Z,5.03
2024-03-13T00:08:09.947Z,5.02
2024-03-13T00:10:38.478Z,5.04
2024-03-13T00:13:06.888Z,5.06
2024-03-13T00:15:35.521Z,5.08
2024-03-13T00:18:03.996Z,5.09
2024-03-13T00:20:32.622Z,5.11
2024-03-13T00:23:02.783Z,5.14
2024-03-13T00:25:34.637Z,5.11
2024-03-13T00:28:03.168Z,5.12
2024-03-13T00:30:31.775Z,5.13
2024-03-13T00:33:00.617Z,5.15
2024-03-13T00:35:29.060Z,5.16
2024-03-13T00:38:00.504Z,5.14
2024-03-13T00:40:29.791Z,5.16
2024-03-13T00:42:59.818Z,5.16
2024-03-13T00:45:28.890Z,5.16
2024-03-13T00:47:57.721Z,5.12
2024-03-13T00:50:26.194Z,5.11
2024-03-13T00:52:55.738Z,5.11
2024-03-13T00:55:25.026Z,5.10
2024-03-13T00:57:53.761Z,5.05
2024-03-13T01:00:29.896Z,5.01
2024-03-13T01:02:58.777Z,4.95
2024-03-13T01:05:27.096Z,4.93
2024-03-13T01:07:56.627Z,4.95
2024-03-13T01:10:28.363Z,4.94
2024-03-13T01:12:57.205Z,4.98
2024-03-13T01:15:27.174Z,4.96
2024-03-13T01:17:55.746Z,4.92
2024-03-13T01:20:24.967Z,4.92
2024-03-13T01:22:57.219Z,4.89
2024-03-13T01:25:26.141Z,4.90
2024-03-13T01:27:55.067Z,4.90
2024-03-13T01:30:25.162Z,4.87
2024-03-13T01:32:55.239Z,4.85
2024-03-13T01:35:23.978Z,4.83
2024-03-13T01:37:57.416Z,4.83
2024-03-13T01:40:48.165Z,4.84
2024-03-13T01:43:34.705Z,4.86
2024-03-13T01:46:37.211Z,4.86
2024-03-13T01:49:30.115Z,4.83
2024-03-13T01:52:20.330Z,4.81
2024-03-13T01:55:07.580Z,4.80
2024-03-13T01:57:47.327Z,4.81
2024-03-13T02:00:36.272Z,4.79
2024-03-13T02:03:05.030Z,4.77
2024-03-13T02:05:35.155Z,4.76
2024-03-13T02:08:05.743Z,4.76
2024-03-13T02:10:35.079Z,4.76
2024-03-13T02:13:10.534Z,4.76
2024-03-13T02:15:40.378Z,4.78
2024-03-13T02:18:20.830Z,4.79
2024-03-13T02:20:53.933Z,4.73
2024-03-13T02:23:25.705Z,4.71
2024-03-13T02:25:54.483Z,4.75
2024-03-13T02:28:36.701Z,4.72
2024-03-13T02:31:08.548Z,4.64
2024-03-13T02:33:37.160Z,4.64
2024-03-13T02:36:07.022Z,4.67
2024-03-13T02:38:36.398Z,4.70
2024-03-13T02:41:05.700Z,4.70
2024-03-13T02:43:38.060Z,4.70
2024-03-13T02:46:06.822Z,4.71
2024-03-13T02:48:35.382Z,4.66
2024-03-13T02:51:03.945Z,4.62
2024-03-13T02:53:32.654Z,4.58
2024-03-13T02:56:02.752Z,4.46
2024-03-13T02:58:31.368Z,4.38
2024-03-13T03:01:02.390Z,4.34
2024-03-13T03:03:31.451Z,4.28
2024-03-13T03:06:02.911Z,4.24
2024-03-13T03:08:33.737Z,4.18
2024-03-13T03:11:04.422Z,4.14
2024-03-13T03:13:33.186Z,4.11
2024-03-13T03:16:02.202Z,4.06
2024-03-13T03:18:30.838Z,4.02
2024-03-13T03:21:00.284Z,4.03
2024-03-13T03:23:29.069Z,4.02
2024-03-13T03:25:58.162Z,4.03
2024-03-13T03:28:26.999Z,4.04
2024-03-13T03:30:58.137Z,4.09
2024-03-13T03:33:27.092Z,4.10
2024-03-13T03:35:55.852Z,4.12
2024-03-13T03:38:27.231Z,4.11
2024-03-13T03:40:56.169Z,4.11
2024-03-13T03:43:24.887Z,4.18
2024-03-13T03:45:54.378Z,4.27
2024-03-13T03:48:23.263Z,4.20
2024-03-13T03:50:51.816Z,4.14
2024-03-13T03:53:20.741Z,4.14
2024-03-13T03:55:49.250Z,4.19
2024-03-13T03:58:18.146Z,4.21
2024-03-13T04:00:47.334Z,4.20
2024-03-13T04:03:16.064Z,4.20
2024-03-13T04:05:44.572Z,4.21
2024-03-13T04:08:15.500Z,4.21
2024-03-13T04:10:44.267Z,4.21
2024-03-13T04:13:13.001Z,4.20
2024-03-13T04:15:41.583Z,4.26
2024-03-13T04:18:11.140Z,4.23
2024-03-13T04:20:39.756Z,4.24
2024-03-13T04:23:08.882Z,4.29
2024-03-13T04:25:38.603Z,4.20
2024-03-13T04:28:08.577Z,4.20
2024-03-13T04:30:37.223Z,4.19
2024-03-13T04:33:06.089Z,4.22
2024-03-13T04:35:34.650Z,4.20
2024-03-13T04:38:04.385Z,4.21
2024-03-13T04:40:33.569Z,4.24
2024-03-13T04:43:02.415Z,4.30
2024-03-13T04:45:30.911Z,4.33
2024-03-13T04:47:59.447Z,4.27
2024-03-13T04:50:28.405Z,4.30
2024-03-13T04:52:56.879Z,4.30
2024-03-13T04:55:27.095Z,4.25
2024-03-13T04:57:56.779Z,4.23
2024-03-13T05:00:25.834Z,4.20
2024-03-13T05:02:56.050Z,4.19
2024-03-13T05:05:24.681Z,4.18
2024-03-13T05:07:55.829Z,4.11
2024-03-13T05:10:29.172Z,4.11
2024-03-13T05:12:57.990Z,4.13
2024-03-13T05:15:27.526Z,4.14
2024-03-13T05:17:57.285Z,4.17
2024-03-13T05:20:26.355Z,4.17
2024-03-13T05:22:54.971Z,4.17
2024-03-13T05:25:24.375Z,4.14
2024-03-13T05:27:53.427Z,4.16
2024-03-13T05:30:22.051Z,4.17
2024-03-13T05:32:50.858Z,4.20
2024-03-13T05:35:19.393Z,4.22
2024-03-13T05:37:47.925Z,4.22
2024-03-13T05:40:19.131Z,4.22
2024-03-13T05:42:48.185Z,4.19
2024-03-13T05:45:17.167Z,4.19
2024-03-13T05:47:45.910Z,4.19
2024-03-13T05:50:18.534Z,4.18
2024-03-13T05:52:48.655Z,4.20
2024-03-13T05:55:20.692Z,4.19
2024-03-13T05:57:51.101Z,4.16
2024-03-13T06:00:20.963Z,4.09
2024-03-13T06:02:50.199Z,4.08
2024-03-13T06:05:18.974Z,4.10
2024-03-13T06:07:48.663Z,4.14
2024-03-13T06:10:17.483Z,4.18
2024-03-13T06:12:46.392Z,4.21
2024-03-13T06:15:15.989Z,4.28
2024-03-13T06:17:46.905Z,4.29
2024-03-13T06:20:19.555Z,4.29
2024-03-13T06:22:48.585Z,4.25
2024-03-13T06:25:20.324Z,4.27
2024-03-13T06:27:52.214Z,4.30
2024-03-13T06:30:20.169Z,4.34
2024-03-13T06:32:49.025Z,4.42
2024-03-13T06:35:17.691Z,4.41
2024-03-13T06:37:46.301Z,4.52
2024-03-13T06:40:16.267Z,4.50
2024-03-13T06:42:46.137Z,4.49
2024-03-13T06:45:21.294Z,4.48
2024-03-13T06:47:59.220Z,4.48
2024-03-13T06:50:29.134Z,4.53
2024-03-13T06:52:57.988Z,4.29
2024-03-13T06:55:27.462Z,4.20
2024-03-13T06:57:56.266Z,4.06
2024-03-13T07:00:29.367Z,4.11
2024-03-13T07:02:58.263Z,4.05
2024-03-13T07:05:27.072Z,3.98
2024-03-13T07:07:56.126Z,3.94
2024-03-13T07:10:24.856Z,3.85
2024-03-13T07:12:53.391Z,3.78
2024-03-13T07:15:22.281Z,3.81
2024-03-13T07:17:50.844Z,3.78
2024-03-13T07:20:19.624Z,3.84
2024-03-13T07:22:48.222Z,3.78
2024-03-13T07:25:19.268Z,3.88
2024-03-13T07:27:47.926Z,3.92
2024-03-13T07:30:17.127Z,4.05
2024-03-13T07:32:45.768Z,3.92
2024-03-13T07:35:15.440Z,3.88
2024-03-13T07:37:43.947Z,4.02
2024-03-13T07:40:12.718Z,4.15
2024-03-13T07:42:43.029Z,4.30
2024-03-13T07:45:17.475Z,4.30
2024-03-13T07:47:46.115Z,4.56
2024-03-13T07:50:14.928Z,4.58
2024-03-13T07:52:43.448Z,4.61
2024-03-13T07:55:12.272Z,4.69
2024-03-13T07:57:40.892Z,4.87
2024-03-13T08:00:10.539Z,4.90
2024-03-13T08:02:41.574Z,5.26
2024-03-13T08:05:10.959Z,5.49
2024-03-13T09:06:05.252Z,5.54
2024-03-13T09:08:43.928Z,5.82
2024-03-13T09:11:18.318Z,5.95
2024-03-13T09:13:47.573Z,6.06
2024-03-13T09:16:16.597Z,6.07
2024-03-13T09:18:45.776Z,5.98
2024-03-13T09:21:14.628Z,6.10
2024-03-13T09:23:44.255Z,5.92
2024-03-13T09:26:13.512Z,5.73
2024-03-13T09:28:42.540Z,5.65
2024-03-13T09:31:11.340Z,5.58
2024-03-13T09:33:40.161Z,5.65
2024-03-13T09:36:10.728Z,5.69
2024-03-13T09:38:39.698Z,5.86
2024-03-13T09:41:08.240Z,5.88
2024-03-13T09:43:37.677Z,5.80
2024-03-13T09:46:06.300Z,5.63
2024-03-13T09:48:35.727Z,5.61
2024-03-13T09:51:07.185Z,5.58
2024-03-13T09:53:37.855Z,5.77
2024-03-13T09:56:06.853Z,6.27
2024-03-13T09:58:38.393Z,6.50
2024-03-13T10:01:10.483Z,6.42
2024-03-13T10:03:39.722Z,6.63
2024-03-13T10:06:08.614Z,6.65
2024-03-13T10:08:37.276Z,6.98
2024-03-13T10:11:06.127Z,6.49
2024-03-13T10:13:34.777Z,6.28
2024-03-13T10:16:03.528Z,6.38
2024-03-13T10:18:32.141Z,6.47
2024-03-13T10:21:01.153Z,6.49
2024-03-13T10:23:30.150Z,6.34
2024-03-13T10:26:01.473Z,6.29
2024-03-13T10:28:30.106Z,6.68
2024-03-13T10:30:59.512Z,6.79
2024-03-13T10:33:29.838Z,6.87
2024-03-13T10:35:59.241Z,6.86
2024-03-13T10:38:27.846Z,6.58
2024-03-13T10:40:58.315Z,6.52
2024-03-13T10:43:32.273Z,6.66
2024-03-13T10:46:00.886Z,6.54
2024-03-13T10:48:29.532Z,6.82
2024-03-13T10:50:58.343Z,7.44
2024-03-13T10:53:26.832Z,7.88
2024-03-13T10:55:55.375Z,8.04
2024-03-13T10:58:24.062Z,8.58
2024-03-13T11:00:53.800Z,9.06
2024-03-13T11:03:23.757Z,8.65
2024-03-13T11:05:52.486Z,7.85
2024-03-13T11:08:23.011Z,7.70
2024-03-13T11:11:01.515Z,7.51
2024-03-13T11:13:36.702Z,7.24
2024-03-13T11:16:07.709Z,7.23
2024-03-13T11:18:36.791Z,7.65
2024-03-13T11:21:05.618Z,7.58
2024-03-13T11:23:35.041Z,7.72
2024-03-13T11:26:04.312Z,7.54
2024-03-13T11:28:32.986Z,7.52
2024-03-13T11:31:01.651Z,7.91
2024-03-13T11:33:30.292Z,8.20
2024-03-13T11:35:59.746Z,8.10
2024-03-13T11:38:30.062Z,7.88
2024-03-13T11:40:58.984Z,7.87
2024-03-13T11:43:30.126Z,7.82
2024-03-13T11:45:58.649Z,7.76
2024-03-13T11:48:27.450Z,7.47
2024-03-13T11:51:09.728Z,7.52
2024-03-13T11:53:40.215Z,7.66
2024-03-13T11:56:11.070Z,8.00
2024-03-13T11:58:41.106Z,8.03
2024-03-13T12:01:15.259Z,7.86
2024-03-13T12:03:46.523Z,8.03
2024-03-13T12:06:38.735Z,8.15
2024-03-13T12:09:12.241Z,8.21
2024-03-13T12:11:42.528Z,8.69
2024-03-13T12:14:11.211Z,9.15
2024-03-13T12:16:40.473Z,8.83
2024-03-13T12:19:11.156Z,8.55
2024-03-13T12:21:40.970Z,8.76
2024-03-13T12:24:10.068Z,8.48
2024-03-13T12:26:38.971Z,8.23
2024-03-13T12:29:07.945Z,8.00
2024-03-13T12:31:36.859Z,7.80
2024-03-13T12:34:05.534Z,7.86
2024-03-13T12:36:45.718Z,7.85
2024-03-13T12:39:15.762Z,7.97
2024-03-13T12:41:44.450Z,8.06
2024-03-13T12:44:13.114Z,8.13
2024-03-13T12:46:42.293Z,8.12
2024-03-13T12:49:15.624Z,8.23
2024-03-13T12:51:44.651Z,8.43
2024-03-13T12:54:15.534Z,8.42
2024-03-13T12:56:45.695Z,8.44
2024-03-13T12:59:15.835Z,8.44
2024-03-13T13:01:44.746Z,8.45
2024-03-13T13:04:15.486Z,8.55
2024-03-13T13:06:44.389Z,8.90
2024-03-13T13:09:14.201Z,9.00
2024-03-13T13:11:45.635Z,8.93
2024-03-13T13:14:14.945Z,8.83
2024-03-13T13:16:44.189Z,8.85
2024-03-13T13:19:14.477Z,8.89
2024-03-13T13:21:43.182Z,8.93
2024-03-13T13:24:12.812Z,9.27
2024-03-13T13:26:41.484Z,9.59
2024-03-13T13:29:10.266Z,9.57
2024-03-13T13:31:39.250Z,9.82
2024-03-13T13:34:08.107Z,9.81
2024-03-13T13:36:36.673Z,9.76
2024-03-13T13:39:06.575Z,9.53
2024-03-13T13:41:36.745Z,9.40
2024-03-13T13:44:05.930Z,9.35
2024-03-13T13:46:36.485Z,9.57
2024-03-13T13:49:08.965Z,9.70
2024-03-13T13:51:38.114Z,9.57
2024-03-13T13:54:06.788Z,9.50
2024-03-13T13:56:35.564Z,9.25
2024-03-13T13:59:04.237Z,9.50
2024-03-13T14:01:36.679Z,9.48
2024-03-13T14:04:06.755Z,9.68
2024-03-13T14:06:36.830Z,9.68
2024-03-13T14:09:07.240Z,9.40
2024-03-13T14:11:36.251Z,9.18
2024-03-13T14:14:05.249Z,9.21
2024-03-13T14:16:33.863Z,9.14
2024-03-13T14:19:02.427Z,9.09
2024-03-13T14:21:31.452Z,9.19
2024-03-13T14:24:02.234Z,9.30
2024-03-13T14:26:30.984Z,9.38
2024-03-13T14:28:59.546Z,9.51
2024-03-13T14:31:28.208Z,9.59
2024-03-13T14:33:57.306Z,9.43
2024-03-13T14:36:27.356Z,9.46
2024-03-13T14:38:56.157Z,9.32
2024-03-13T14:41:24.982Z,9.28
2024-03-13T14:43:53.684Z,9.34
2024-03-13T14:46:22.256Z,9.56
2024-03-13T14:48:50.982Z,9.43
2024-03-13T14:51:19.898Z,9.29
2024-03-13T14:53:48.524Z,9.66
2024-03-13T14:56:17.192Z,11.10
2024-03-13T14:58:45.964Z,11.70
2024-03-13T15:01:14.600Z,11.09
2024-03-13T15:03:50.652Z,10.53
2024-03-13T15:06:19.305Z,10.27
2024-03-13T15:08:48.001Z,9.96
2024-03-13T15:11:16.563Z,9.80
2024-03-13T15:13:48.115Z,9.68
2024-03-13T15:16:16.932Z,9.49
2024-03-13T15:18:45.765Z,9.59
2024-03-13T15:21:14.587Z,9.57
2024-03-13T15:23:43.305Z,9.46
2024-03-13T15:26:12.169Z,9.33
2024-03-13T15:28:40.788Z,9.33
2024-03-13T15:31:09.499Z,9.27
2024-03-13T15:33:39.361Z,9.43
2024-03-13T15:36:08.524Z,9.24
2024-03-13T15:38:37.711Z,9.26
2024-03-13T15:41:06.649Z,9.08
2024-03-13T15:43:35.180Z,9.07
2024-03-13T15:46:03.707Z,9.09
2024-03-13T15:48:32.336Z,9.09
2024-03-13T15:51:01.377Z,9.12
2024-03-13T15:53:29.879Z,9.03
2024-03-13T15:55:58.569Z,8.93
2024-03-13T15:58:27.561Z,8.82
2024-03-13T16:00:56.133Z,8.80
2024-03-13T16:03:25.231Z,8.87
2024-03-13T16:05:53.811Z,8.85
2024-03-13T16:08:22.734Z,8.79
2024-03-13T16:10:51.693Z,8.78
2024-03-13T16:13:20.340Z,8.79
2024-03-13T16:15:49.877Z,8.85
2024-03-13T16:18:21.016Z,8.72
2024-03-13T16:20:49.990Z,8.74
2024-03-13T16:23:18.816Z,8.72
2024-03-13T16:25:47.976Z,8.66
2024-03-13T16:28:16.537Z,8.68
2024-03-13T16:30:46.002Z,8.65
2024-03-13T16:33:14.758Z,8.61
2024-03-13T16:35:43.578Z,8.62
2024-03-13T16:38:14.335Z,8.58
2024-03-13T16:40:44.276Z,8.56
2024-03-13T16:43:13.680Z,8.54
2024-03-13T16:45:42.275Z,8.55
2024-03-13T16:48:11.423Z,8.53
2024-03-13T16:50:40.074Z,8.55
2024-03-13T16:53:08.929Z,8.53
2024-03-13T16:55:37.606Z,8.50
2024-03-13T16:58:06.922Z,8.52
2024-03-13T17:00:35.480Z,8.52
2024-03-13T17:03:04.368Z,8.54
2024-03-13T17:05:33.048Z,8.51
2024-03-13T17:08:01.570Z,8.49
2024-03-13T17:10:30.477Z,8.49
2024-03-13T17:12:58.950Z,8.48
2024-03-13T17:15:27.524Z,8.46
2024-03-13T17:17:56.370Z,8.43
2024-03-13T17:20:26.190Z,8.40
2024-03-13T17:22:55.037Z,8.35
2024-03-13T17:25:25.219Z,8.34
2024-03-13T17:27:54.424Z,8.34
2024-03-13T17:30:23.220Z,8.35
2024-03-13T17:32:52.499Z,8.37
2024-03-13T17:35:22.153Z,8.39
2024-03-13T17:37:52.097Z,8.31
2024-03-13T17:40:21.511Z,8.29
2024-03-13T17:42:50.338Z,8.27
2024-03-13T17:45:20.795Z,8.30
2024-03-13T17:47:50.713Z,8.29
2024-03-13T17:50:19.396Z,8.29
2024-03-13T17:52:48.131Z,8.29
2024-03-13T17:55:17.374Z,8.30
2024-03-13T17:57:45.981Z,8.30
2024-03-13T18:00:18.046Z,8.33
2024-03-13T18:02:46.710Z,8.34
2024-03-13T18:05:17.005Z,8.35
2024-03-13T18:10:21.295Z,8.37
2024-03-13T18:12:50.066Z,8.35
2024-03-13T18:15:19.896Z,8.30
2024-03-13T18:17:49.313Z,8.26
2024-03-13T18:20:18.939Z,8.29
2024-03-13T18:22:47.527Z,8.27
2024-03-13T18:25:16.344Z,8.22
2024-03-13T18:27:44.959Z,8.17
2024-03-13T18:30:16.496Z,8.10
2024-03-13T18:32:46.206Z,7.98
2024-03-13T18:35:16.106Z,7.88
2024-03-13T18:37:45.062Z,7.82
2024-03-13T18:40:17.140Z,7.77
2024-03-13T18:42:46.345Z,7.75
2024-03-13T18:45:15.743Z,7.74
2024-03-13T18:47:44.834Z,7.73
2024-03-13T18:50:15.570Z,7.73
2024-03-13T18:52:46.366Z,7.69
2024-03-13T18:55:16.594Z,7.69
2024-03-13T18:57:45.583Z,7.68
2024-03-13T19:00:15.795Z,7.67
2024-03-13T19:02:44.948Z,7.67
2024-03-13T19:05:19.512Z,7.71
2024-03-13T19:07:54.146Z,7.71
2024-03-13T19:10:27.625Z,7.70
2024-03-13T19:12:59.594Z,7.71
2024-03-13T19:15:33.094Z,7.73
2024-03-13T19:18:04.540Z,7.70
2024-03-13T19:20:34.390Z,7.67
2024-03-13T19:23:05.294Z,7.65
2024-03-13T19:25:35.796Z,7.66
2024-03-13T19:28:05.157Z,7.68
2024-03-13T19:30:34.889Z,7.65
2024-03-13T19:33:05.729Z,7.64
2024-03-13T19:35:35.915Z,7.61
2024-03-13T19:38:05.773Z,7.60
2024-03-13T19:40:34.344Z,7.59
2024-03-13T19:43:04.216Z,7.55
2024-03-13T19:45:34.095Z,7.57
2024-03-13T19:48:04.441Z,7.57
2024-03-13T19:50:33.355Z,7.55
2024-03-13T19:53:01.917Z,7.52
2024-03-13T19:55:30.663Z,7.59
2024-03-13T19:57:59.616Z,7.58
2024-03-13T20:00:31.232Z,7.55
2024-03-13T20:03:08.670Z,7.53
2024-03-13T20:05:39.151Z,7.50
2024-03-13T20:08:07.897Z,7.51
2024-03-13T20:10:36.509Z,7.50
2024-03-13T20:13:07.084Z,7.51
2024-03-13T20:15:35.853Z,7.52
2024-03-13T20:18:04.957Z,7.52
2024-03-13T20:20:37.557Z,7.51
2024-03-13T20:23:09.248Z,7.52
2024-03-13T20:25:38.634Z,7.49
2024-03-13T20:28:12.145Z,7.49
2024-03-13T20:30:40.884Z,7.50
2024-03-13T20:33:11.346Z,7.51
2024-03-13T20:35:40.480Z,7.50
2024-03-13T20:38:09.351Z,7.49
2024-03-13T20:40:40.710Z,7.49
2024-03-13T20:43:11.113Z,7.52
2024-03-13T20:45:40.161Z,7.52
2024-03-13T20:48:09.616Z,7.55
2024-03-13T20:50:40.767Z,7.52
2024-03-13T20:53:09.527Z,7.54
2024-03-13T20:55:38.118Z,7.53
2024-03-13T20:58:06.750Z,7.56
2024-03-13T21:00:35.619Z,7.58
2024-03-13T21:03:04.274Z,7.59
2024-03-13T21:05:33.098Z,7.61
2024-03-13T21:08:01.823Z,7.61
2024-03-13T21:10:31.792Z,7.59
2024-03-13T21:13:00.496Z,7.59
2024-03-13T21:15:30.770Z,7.61
2024-03-13T21:17:59.439Z,7.60
2024-03-13T21:20:28.267Z,7.61
2024-03-13T21:22:56.910Z,7.62
2024-03-13T21:25:25.350Z,7.61
2024-03-13T21:27:54.001Z,7.64
2024-03-13T21:30:22.546Z,7.66
2024-03-13T21:32:51.270Z,7.66
2024-03-13T21:35:19.815Z,7.66
2024-03-13T21:37:49.538Z,7.64
2024-03-13T21:40:18.182Z,7.67
2024-03-13T21:42:47.306Z,7.65
2024-03-13T21:45:16.321Z,7.64
2024-03-13T21:47:46.219Z,7.65
2024-03-13T21:50:16.356Z,7.66
2024-03-13T21:52:45.048Z,7.70
2024-03-13T21:55:14.260Z,7.69
2024-03-13T21:57:46.212Z,7.71
2024-03-13T22:00:16.819Z,7.71
2024-03-13T22:02:46.750Z,7.66
2024-03-13T22:05:15.592Z,7.68
2024-03-13T22:07:45.206Z,7.66
2024-03-13T22:10:14.023Z,7.66
2024-03-13T22:12:42.916Z,7.61
2024-03-13T22:15:14.231Z,7.59
2024-03-13T22:17:43.446Z,7.62
2024-03-13T22:20:12.399Z,7.61
2024-03-13T22:22:41.295Z,7.56
2024-03-13T22:25:11.121Z,7.57
2024-03-13T22:27:39.841Z,7.58
2024-03-13T22:30:09.213Z,7.61
2024-03-13T22:32:37.923Z,7.60
2024-03-13T22:35:07.987Z,7.61
2024-03-13T22:37:36.813Z,7.54
2024-03-13T22:40:08.552Z,7.53
2024-03-13T22:42:37.265Z,7.55
2024-03-13T22:45:07.478Z,7.55
2024-03-13T22:47:36.776Z,7.54
2024-03-13T22:50:06.371Z,7.53
2024-03-13T22:52:35.151Z,7.55
2024-03-13T22:55:03.832Z,7.59
2024-03-13T22:57:32.564Z,7.58
2024-03-13T23:00:10.848Z,7.57
2024-03-13T23:02:39.467Z,7.57
2024-03-13T23:05:09.675Z,7.58
2024-03-13T23:07:38.438Z,7.59
2024-03-13T23:10:08.285Z,7.58
2024-03-13T23:12:36.987Z,7.57
2024-03-13T23:15:07.067Z,7.53
2024-03-13T23:17:35.980Z,7.55
2024-03-13T23:20:09.404Z,7.57
2024-03-13T23:22:37.905Z,7.59
2024-03-13T23:25:07.270Z,7.60
2024-03-13T23:27:36.929Z,7.60
2024-03-13T23:30:08.099Z,7.57
2024-03-13T23:32:36.921Z,7.57
2024-03-13T23:35:06.821Z,7.56
2024-03-13T23:37:37.034Z,7.57
2024-03-13T23:40:07.288Z,7.57
2024-03-13T23:42:42.125Z,7.59
2024-03-13T23:45:11.963Z,7.58
2024-03-13T23:47:42.560Z,7.60
2024-03-13T23:50:11.883Z,7.60
2024-03-13T23:52:40.463Z,7.62
2024-03-13T23:55:09.619Z,7.63
2024-03-13T23:57:39.964Z,7.63
